Time;durP1;ratioP1;P1;durP2;ratioP2;P2;SDS_P1;SDS_P2;PMS_P1;PMS_P2;Temp;Humidity;BMP_temperature;BMP_pressure;BME280_temperature;BME280_humidity;BME280_pressure;Samples;Min_cycle;Max_cycle;Signal;HPM_P1;HPM_P2
2023/07/02 00:01:03;;;;;;;1999.90;999.90;;;16.30;99.90;;;;;;5033962;28;20038;-77
2023/07/02 00:03:29;;;;;;;1999.90;999.90;;;16.30;99.90;;;;;;5033865;28;20125;-77
2023/07/02 00:05:56;;;;;;;1999.90;999.90;;;16.20;99.90;;;;;;5033286;28;20077;-77
2023/07/02 00:08:22;;;;;;;1999.90;999.90;;;16.20;99.90;;;;;;5034059;28;20037;-77
2023/07/02 00:10:48;;;;;;;1999.90;999.90;;;16.20;99.90;;;;;;5034316;28;20037;-77
2023/07/02 00:13:14;;;;;;;1999.90;999.90;;;16.20;99.90;;;;;;5032022;28;20400;-76
2023/07/02 00:15:40;;;;;;;1999.90;999.90;;;16.10;99.90;;;;;;5030664;28;20053;-77
2023/07/02 00:18:06;;;;;;;1999.90;999.90;;;16.10;99.90;;;;;;5033902;28;20528;-76
2023/07/02 00:20:34;;;;;;;1999.90;999.90;;;16.10;99.90;;;;;;5033853;28;20049;-76
2023/07/02 00:23:00;;;;;;;1999.90;999.90;;;16.00;99.90;;;;;;5033026;28;20034;-76
2023/07/02 00:25:26;;;;;;;1999.90;999.90;;;16.00;99.90;;;;;;5033884;28;20037;-77
2023/07/02 00:27:51;;;;;;;1999.90;999.90;;;15.90;99.90;;;;;;5033764;28;20030;-77
2023/07/02 00:30:17;;;;;;;1999.90;999.90;;;15.90;99.90;;;;;;5034149;28;20038;-77
2023/07/02 00:32:42;;;;;;;1999.90;999.90;;;15.90;99.90;;;;;;5033655;28;20104;-77
2023/07/02 00:35:08;;;;;;;1999.90;999.90;;;15.90;99.90;;;;;;5033851;28;20101;-77
2023/07/02 00:37:34;;;;;;;1999.90;999.90;;;15.90;99.90;;;;;;5034061;28;20041;-77
2023/07/02 00:39:59;;;;;;;1999.90;999.90;;;15.90;99.90;;;;;;5034707;28;20125;-77
2023/07/02 00:42:29;;;;;;;1999.90;999.90;;;15.80;99.90;;;;;;5036683;28;20500;-77
2023/07/02 00:44:56;;;;;;;1999.90;999.90;;;15.80;99.90;;;;;;5036993;28;20030;-77
2023/07/02 00:47:23;;;;;;;1999.90;999.90;;;15.90;99.90;;;;;;5037015;28;20034;-77
2023/07/02 00:49:48;;;;;;;1999.90;999.90;;;15.90;99.90;;;;;;5036970;28;20504;-77
2023/07/02 00:52:14;;;;;;;1999.90;999.90;;;15.90;99.90;;;;;;5036769;28;20069;-77
2023/07/02 00:54:40;;;;;;;1999.90;999.90;;;15.90;99.90;;;;;;5035502;28;20091;-77
2023/07/02 00:57:06;;;;;;;1999.90;999.90;;;15.90;99.90;;;;;;5037274;28;20545;-77
2023/07/02 00:59:37;;;;;;;1999.90;999.90;;;15.90;99.90;;;;;;5037049;28;20623;-77
2023/07/02 01:02:06;;;;;;;1999.90;999.90;;;15.90;99.90;;;;;;5036782;28;20092;-77
2023/07/02 01:04:32;;;;;;;1999.90;999.90;;;15.90;99.90;;;;;;5034704;28;20038;-77
2023/07/02 01:06:57;;;;;;;1999.90;999.90;;;15.90;99.90;;;;;;5036983;28;20033;-77
2023/07/02 01:09:26;;;;;;;1999.90;999.90;;;15.70;99.90;;;;;;5037267;28;20100;-77
2023/07/02 01:12:01;;;;;;;1999.90;999.90;;;15.70;99.90;;;;;;5036383;28;20037;-77
2023/07/02 01:14:34;;;;;;;1999.90;999.90;;;15.70;99.90;;;;;;5033747;28;20034;-76
2023/07/02 01:17:06;;;;;;;1999.90;999.90;;;15.60;99.90;;;;;;5036858;28;20034;-76
2023/07/02 01:19:52;;;;;;;1999.90;999.90;;;15.60;99.90;;;;;;5035803;28;20034;-77
2023/07/02 01:22:26;;;;;;;1999.90;999.90;;;15.60;99.90;;;;;;5036089;28;20547;-77
2023/07/02 01:24:53;;;;;;;1999.90;999.90;;;15.60;99.90;;;;;;5036668;28;20092;-77
2023/07/02 01:27:19;;;;;;;1999.90;999.90;;;15.60;99.90;;;;;;5036477;28;20034;-77
2023/07/02 01:29:46;;;;;;;1999.90;999.90;;;15.60;99.90;;;;;;5036676;28;20033;-77
2023/07/02 01:32:12;;;;;;;1999.90;999.90;;;15.60;99.90;;;;;;5036043;28;20204;-77
2023/07/02 01:34:38;;;;;;;1999.90;999.90;;;15.60;99.90;;;;;;5036572;28;20038;-77
2023/07/02 01:37:04;;;;;;;1999.90;999.90;;;15.70;99.90;;;;;;5036781;28;20041;-77
2023/07/02 01:39:30;;;;;;;1999.90;999.90;;;15.70;99.90;;;;;;5036421;28;20592;-77
2023/07/02 01:42:06;;;;;;;1999.90;999.90;;;15.70;99.90;;;;;;5035947;28;20053;-77
2023/07/02 01:44:32;;;;;;;1999.90;999.90;;;15.70;99.90;;;;;;5036401;28;20030;-77
2023/07/02 01:46:58;;;;;;;1999.90;999.90;;;15.80;99.90;;;;;;5036337;28;20037;-77
2023/07/02 01:49:24;;;;;;;1999.90;999.90;;;15.90;99.90;;;;;;5036126;28;20100;-77
2023/07/02 01:51:53;;;;;;;1999.90;999.90;;;15.90;99.90;;;;;;5019818;28;20089;-77
2023/07/02 01:54:20;;;;;;;1999.90;999.90;;;15.90;99.90;;;;;;5015816;28;20034;-77
2023/07/02 01:56:46;;;;;;;1999.90;999.90;;;16.00;99.90;;;;;;5016353;28;20074;-77
2023/07/02 01:59:12;;;;;;;1999.90;999.90;;;16.00;99.90;;;;;;5014641;28;20512;-77
2023/07/02 02:01:41;;;;;;;1999.90;999.90;;;16.00;99.90;;;;;;5014406;28;20046;-77
2023/07/02 02:04:07;;;;;;;1999.90;999.90;;;16.00;99.90;;;;;;5013509;28;20031;-77
2023/07/02 02:06:33;;;;;;;1999.90;999.90;;;16.00;99.90;;;;;;5028755;28;20126;-77
2023/07/02 02:08:58;;;;;;;1999.90;999.90;;;16.10;99.90;;;;;;5036210;28;20026;-77
2023/07/02 02:11:24;;;;;;;1999.90;999.90;;;16.10;99.90;;;;;;5034294;28;20033;-76
2023/07/02 02:13:50;;;;;;;1999.90;999.90;;;16.20;99.90;;;;;;5035596;28;20041;-77
2023/07/02 02:16:15;;;;;;;1999.90;999.90;;;16.20;99.90;;;;;;5016766;28;20552;-77
2023/07/02 02:18:41;;;;;;;1999.90;999.90;;;16.20;99.90;;;;;;5016244;28;20809;-76
2023/07/02 02:21:08;;;;;;;1999.90;999.90;;;16.20;99.90;;;;;;5015478;28;20137;-77
2023/07/02 02:23:33;;;;;;;1999.90;999.90;;;16.20;99.90;;;;;;5014308;28;20034;-77
2023/07/02 02:25:59;;;;;;;1999.90;999.90;;;16.20;99.90;;;;;;5015887;28;20046;-77
2023/07/02 02:28:24;;;;;;;1999.90;999.90;;;16.20;99.90;;;;;;5014467;28;20042;-78
2023/07/02 02:30:50;;;;;;;1999.90;999.90;;;16.20;99.90;;;;;;5015918;28;20092;-77
2023/07/02 02:33:15;;;;;;;1999.90;999.90;;;16.30;99.90;;;;;;5014159;28;20050;-77
2023/07/02 02:35:41;;;;;;;1999.90;999.90;;;16.20;99.90;;;;;;5015561;28;20054;-77
2023/07/02 02:38:06;;;;;;;1999.90;999.90;;;16.20;99.90;;;;;;5015876;28;20037;-77
2023/07/02 02:40:32;;;;;;;1999.90;999.90;;;16.20;99.90;;;;;;5015750;28;20053;-76
2023/07/02 02:42:58;;;;;;;1999.90;999.90;;;16.20;99.90;;;;;;5014159;28;20110;-77
2023/07/02 02:45:23;;;;;;;1999.90;999.90;;;16.20;99.90;;;;;;5015467;28;20031;-77
2023/07/02 02:47:49;;;;;;;1999.90;999.90;;;16.20;99.90;;;;;;5015657;28;20440;-77
2023/07/02 02:50:14;;;;;;;1999.90;999.90;;;16.20;99.90;;;;;;5015379;28;20065;-77
2023/07/02 02:52:40;;;;;;;1999.90;999.90;;;16.20;99.90;;;;;;5015140;28;20026;-77
2023/07/02 02:55:07;;;;;;;1999.90;999.90;;;16.30;99.90;;;;;;5015720;28;20182;-77
2023/07/02 02:57:33;;;;;;;1999.90;999.90;;;16.30;99.90;;;;;;5015581;28;20031;-77
2023/07/02 02:59:59;;;;;;;1999.90;999.90;;;16.30;99.90;;;;;;5015401;28;20034;-77
2023/07/02 03:02:25;;;;;;;1999.90;999.90;;;16.20;99.90;;;;;;5013174;28;20041;-77
2023/07/02 03:04:51;;;;;;;1999.90;999.90;;;16.20;99.90;;;;;;5014888;28;20035;-77
2023/07/02 03:07:17;;;;;;;1999.90;999.90;;;16.20;99.90;;;;;;5013957;28;20041;-77
2023/07/02 03:09:42;;;;;;;1999.90;999.90;;;16.20;99.90;;;;;;5015309;28;20030;-77
2023/07/02 03:12:08;;;;;;;1999.90;999.90;;;16.20;99.90;;;;;;5014787;28;20057;-77
2023/07/02 03:14:34;;;;;;;1999.90;999.90;;;16.10;99.90;;;;;;5014953;28;20045;-77
2023/07/02 03:16:59;;;;;;;1999.90;999.90;;;16.10;99.90;;;;;;5013769;28;20030;-77
2023/07/02 03:19:25;;;;;;;1999.90;999.90;;;16.10;99.90;;;;;;5015176;28;20034;-77
2023/07/02 03:21:51;;;;;;;1999.90;999.90;;;16.10;99.90;;;;;;5013634;28;20050;-77
2023/07/02 03:24:17;;;;;;;1999.90;999.90;;;16.10;99.90;;;;;;5015189;28;20366;-77
2023/07/02 03:26:43;;;;;;;1999.90;999.90;;;16.10;99.90;;;;;;5015370;28;20037;-76
2023/07/02 03:29:09;;;;;;;1999.90;999.90;;;16.20;99.90;;;;;;5013617;28;20674;-78
2023/07/02 03:31:35;;;;;;;1999.90;999.90;;;16.20;99.90;;;;;;5014760;28;20081;-78
2023/07/02 03:34:06;;;;;;;1999.90;999.90;;;16.20;99.90;;;;;;5014664;28;20136;-75
2023/07/02 03:36:31;;;;;;;1999.90;999.90;;;16.10;99.90;;;;;;5014913;28;20038;-77
2023/07/02 03:38:58;;;;;;;1999.90;999.90;;;16.20;99.90;;;;;;5014913;28;20035;-76
2023/07/02 03:41:23;;;;;;;1999.90;999.90;;;16.10;99.90;;;;;;5014354;28;20049;-77
2023/07/02 03:43:49;;;;;;;1999.90;999.90;;;16.10;99.90;;;;;;5012964;28;20057;-76
2023/07/02 03:46:14;;;;;;;1999.90;999.90;;;16.10;99.90;;;;;;5013157;28;20046;-77
2023/07/02 03:48:40;;;;;;;1999.90;999.90;;;16.10;99.90;;;;;;5013266;28;20045;-76
2023/07/02 03:51:06;;;;;;;1999.90;999.90;;;16.10;99.90;;;;;;5014187;28;20053;-77
2023/07/02 03:53:32;;;;;;;1999.90;999.90;;;16.10;99.90;;;;;;5014322;28;20493;-77
2023/07/02 03:55:57;;;;;;;1999.90;999.90;;;16.00;99.90;;;;;;5014466;28;20041;-77
2023/07/02 03:58:23;;;;;;;1999.90;999.90;;;16.00;99.90;;;;;;5014528;28;20113;-77
2023/07/02 04:00:51;;;;;;;1999.90;999.90;;;16.00;99.90;;;;;;5012934;28;20066;-77
2023/07/02 04:03:17;;;;;;;1999.90;999.90;;;16.00;99.90;;;;;;5012819;28;20086;-77
2023/07/02 04:05:43;;;;;;;1999.90;999.90;;;16.00;99.90;;;;;;5014073;28;20562;-77
2023/07/02 04:08:09;;;;;;;1999.90;999.90;;;16.00;99.90;;;;;;5014325;28;20484;-77
2023/07/02 04:10:35;;;;;;;1999.90;999.90;;;15.90;99.90;;;;;;5014434;28;20038;-77
2023/07/02 04:13:01;;;;;;;1999.90;999.90;;;15.90;99.90;;;;;;5011859;28;20392;-77
2023/07/02 04:15:26;;;;;;;1999.90;999.90;;;16.00;99.90;;;;;;5013952;28;20449;-77
2023/07/02 04:17:52;;;;;;;1999.90;999.90;;;16.00;99.90;;;;;;5014322;28;20624;-77
2023/07/02 04:20:19;;;;;;;1999.90;999.90;;;16.00;99.90;;;;;;5012754;28;20053;-77
2023/07/02 04:22:45;;;;;;;1999.90;999.90;;;16.00;99.90;;;;;;5013873;28;20041;-77
2023/07/02 04:25:15;;;;;;;1999.90;999.90;;;16.00;99.90;;;;;;5012580;28;20039;-77
2023/07/02 04:27:42;;;;;;;1999.90;999.90;;;16.00;99.90;;;;;;5012696;28;20041;-77
2023/07/02 04:30:08;;;;;;;1999.90;999.90;;;16.00;99.90;;;;;;5014032;28;20034;-77
2023/07/02 04:32:33;;;;;;;1999.90;999.90;;;16.00;99.90;;;;;;5013529;28;20030;-77
2023/07/02 04:34:59;;;;;;;1999.90;999.90;;;16.00;99.90;;;;;;5013895;28;20046;-77
2023/07/02 04:37:24;;;;;;;1999.90;999.90;;;16.10;99.90;;;;;;5014072;28;20034;-77
2023/07/02 04:39:50;;;;;;;1999.90;999.90;;;16.10;99.90;;;;;;5013802;28;20065;-77
2023/07/02 04:42:16;;;;;;;1999.90;999.90;;;16.10;99.90;;;;;;5013833;28;20122;-77
2023/07/02 04:44:43;;;;;;;1999.90;999.90;;;16.10;99.90;;;;;;5014062;28;20485;-78
2023/07/02 04:47:09;;;;;;;1999.90;999.90;;;16.10;99.90;;;;;;5013991;28;20493;-78
2023/07/02 04:49:34;;;;;;;1999.90;999.90;;;16.10;99.90;;;;;;5014024;28;20034;-77
2023/07/02 04:52:00;;;;;;;1999.90;999.90;;;16.20;99.90;;;;;;5013757;28;20035;-77
2023/07/02 04:54:25;;;;;;;1999.90;999.90;;;16.20;99.90;;;;;;5011804;28;20034;-77
2023/07/02 04:56:51;;;;;;;1999.90;999.90;;;16.20;99.90;;;;;;5014092;28;20118;-76
2023/07/02 04:59:16;;;;;;;1999.90;999.90;;;16.20;99.90;;;;;;5013787;28;20428;-77
2023/07/02 05:01:42;;;;;;;1999.90;999.90;;;16.30;99.90;;;;;;5011976;28;20401;-77
2023/07/02 05:04:13;;;;;;;1999.90;999.90;;;16.40;99.90;;;;;;5013148;28;20031;-77
2023/07/02 05:06:39;;;;;;;1999.90;999.90;;;16.40;99.90;;;;;;5013576;28;20424;-77
2023/07/02 05:09:05;;;;;;;1999.90;999.90;;;16.40;99.90;;;;;;5012329;28;20034;-77
2023/07/02 05:11:30;;;;;;;1999.90;999.90;;;16.40;99.90;;;;;;5013627;28;20042;-78
2023/07/02 05:13:56;;;;;;;1999.90;999.90;;;16.50;99.90;;;;;;5014068;28;20035;-77
2023/07/02 05:16:21;;;;;;;1999.90;999.90;;;16.60;99.90;;;;;;5013794;28;20038;-77
2023/07/02 05:18:47;;;;;;;1999.90;999.90;;;16.60;99.90;;;;;;5013824;28;20034;-77
2023/07/02 05:21:12;;;;;;;1999.90;999.90;;;16.70;99.90;;;;;;5013461;28;20038;-78
2023/07/02 05:23:38;;;;;;;1999.90;999.90;;;16.80;99.90;;;;;;5014006;28;20481;-78
2023/07/02 05:26:03;;;;;;;1999.90;999.90;;;16.90;99.90;;;;;;5016581;28;20066;-77
2023/07/02 05:28:29;;;;;;;1999.90;999.90;;;17.00;99.90;;;;;;5017253;28;20083;-77
2023/07/02 05:30:55;;;;;;;1999.90;999.90;;;17.00;99.90;;;;;;5017211;28;20485;-78
2023/07/02 05:33:21;;;;;;;1999.90;999.90;;;17.00;99.90;;;;;;5016950;28;20039;-78
2023/07/02 05:35:47;;;;;;;1999.90;999.90;;;17.00;99.90;;;;;;5016849;28;20085;-78
2023/07/02 05:38:13;;;;;;;1999.90;999.90;;;17.10;99.90;;;;;;5016922;28;20102;-77
2023/07/02 05:40:39;;;;;;;1999.90;999.90;;;16.90;99.90;;;;;;5015280;28;20034;-78
2023/07/02 05:43:05;;;;;;;1999.90;999.90;;;17.00;99.90;;;;;;5016592;28;20030;-78
2023/07/02 05:45:31;;;;;;;1999.90;999.90;;;17.10;99.90;;;;;;5016234;28;20042;-77
2023/07/02 05:47:57;;;;;;;1999.90;999.90;;;17.20;99.90;;;;;;5016711;28;20018;-77
2023/07/02 05:50:23;;;;;;;1999.90;999.90;;;17.20;99.90;;;;;;5015090;28;20030;-78
2023/07/02 05:52:48;;;;;;;1999.90;999.90;;;17.30;99.90;;;;;;5016367;28;20030;-77
2023/07/02 05:55:14;;;;;;;1999.90;999.90;;;17.40;99.90;;;;;;5014890;28;20039;-78
2023/07/02 05:57:39;;;;;;;1999.90;999.90;;;17.60;99.90;;;;;;5016529;28;20030;-77
2023/07/02 06:00:06;;;;;;;1999.90;999.90;;;17.70;99.90;;;;;;5016606;28;20069;-77
2023/07/02 06:02:32;;;;;;;1999.90;999.90;;;17.70;99.90;;;;;;5015921;28;20034;-76
2023/07/02 06:04:57;;;;;;;1999.90;999.90;;;17.60;99.90;;;;;;5015615;28;20045;-76
2023/07/02 06:07:24;;;;;;;1999.90;999.90;;;17.50;99.90;;;;;;5016529;28;20043;-76
2023/07/02 06:09:50;;;;;;;1999.90;999.90;;;17.50;99.90;;;;;;5016520;28;20030;-76
2023/07/02 06:12:15;;;;;;;1999.90;999.90;;;17.30;99.90;;;;;;5016326;28;20030;-76
2023/07/02 06:14:41;;;;;;;1999.90;999.90;;;17.30;99.90;;;;;;5015691;28;20422;-76
2023/07/02 06:17:08;;;;;;;1999.90;999.90;;;17.30;99.90;;;;;;5016206;28;20113;-76
2023/07/02 06:19:33;;;;;;;1999.90;999.90;;;17.40;99.90;;;;;;5014523;28;20045;-77
2023/07/02 06:21:59;;;;;;;1999.90;999.90;;;17.30;99.90;;;;;;5016142;28;20042;-76
2023/07/02 06:24:25;;;;;;;1999.90;999.90;;;17.40;99.90;;;;;;5015795;28;20121;-76
2023/07/02 06:26:50;;;;;;;1999.90;999.90;;;17.40;99.90;;;;;;5016436;28;20038;-77
2023/07/02 06:29:16;;;;;;;1999.90;999.90;;;17.50;99.90;;;;;;5016068;28;20445;-78
2023/07/02 06:31:42;;;;;;;1999.90;999.90;;;17.70;99.90;;;;;;5016198;28;20520;-77
2023/07/02 06:34:08;;;;;;;1999.90;999.90;;;18.10;99.90;;;;;;5014516;28;20057;-76
2023/07/02 06:36:36;;;;;;;1999.90;999.90;;;18.50;99.90;;;;;;5015103;28;20038;-76
2023/07/02 06:39:02;;;;;;;1999.90;999.90;;;18.90;99.90;;;;;;5015881;28;20086;-77
2023/07/02 06:41:27;;;;;;;1999.90;999.90;;;19.10;99.90;;;;;;5016279;28;20042;-78
2023/07/02 06:43:53;;;;;;;1999.90;999.90;;;19.50;99.90;;;;;;5017791;28;20501;-78
2023/07/02 06:46:19;;;;;;;1999.90;999.90;;;19.30;99.90;;;;;;5015710;28;20527;-77
2023/07/02 06:48:45;;;;;;;1999.90;999.90;;;19.50;99.90;;;;;;5018149;28;20035;-78
2023/07/02 06:51:12;;;;;;;1999.90;999.90;;;19.50;99.90;;;;;;5017453;28;20822;-78
2023/07/02 06:53:38;;;;;;;1999.90;999.90;;;19.40;99.90;;;;;;5018358;28;20057;-79
2023/07/02 06:56:03;;;;;;;1999.90;999.90;;;19.70;99.90;;;;;;5016248;28;20062;-77
2023/07/02 06:58:30;;;;;;;1999.90;999.90;;;19.60;99.90;;;;;;5014886;28;20030;-77
2023/07/02 07:00:55;;;;;;;1999.90;999.90;;;19.70;99.90;;;;;;5016087;28;20038;-78
2023/07/02 07:03:21;;;;;;;1999.90;999.90;;;19.90;99.90;;;;;;5012598;28;20035;-77
2023/07/02 07:05:46;;;;;;;1999.90;999.90;;;20.00;99.90;;;;;;5015989;28;20039;-80
2023/07/02 07:08:12;;;;;;;1999.90;999.90;;;20.20;99.90;;;;;;5013183;28;20107;-77
2023/07/02 07:10:38;;;;;;;1999.90;999.90;;;20.20;99.90;;;;;;5014796;28;20053;-79
2023/07/02 07:13:04;;;;;;;1999.90;999.90;;;20.40;99.90;;;;;;5022313;28;20034;-80
2023/07/02 07:15:36;;;;;;;1999.90;999.90;;;20.50;99.90;;;;;;5020743;28;20030;-80
2023/07/02 07:18:02;;;;;;;1999.90;999.90;;;20.40;99.90;;;;;;5016615;28;20034;-79
2023/07/02 07:20:29;;;;;;;1999.90;999.90;;;20.20;99.90;;;;;;5020791;28;20042;-79
2023/07/02 07:22:54;;;;;;;1999.90;999.90;;;20.00;99.90;;;;;;5019634;28;20476;-78
2023/07/02 07:25:20;;;;;;;1999.90;999.90;;;20.20;99.90;;;;;;5016309;28;20050;-78
2023/07/02 07:27:45;;;;;;;1999.90;999.90;;;20.40;99.80;;;;;;5013506;28;20034;-81
2023/07/02 07:30:11;;;;;;;1999.90;999.90;;;20.40;99.00;;;;;;5014067;28;20034;-78
2023/07/02 07:32:37;;;;;;;1999.90;999.90;;;20.30;98.30;;;;;;5014261;28;20508;-78
2023/07/02 07:35:03;;;;;;;1999.90;999.90;;;20.20;97.30;;;;;;5015331;28;20043;-78
2023/07/02 07:37:28;;;;;;;1999.90;999.90;;;20.30;96.20;;;;;;5015310;28;20034;-78
2023/07/02 07:39:54;;;;;;;1999.90;999.90;;;20.50;96.30;;;;;;5014727;28;20041;-79
2023/07/02 07:42:19;;;;;;;1999.90;999.90;;;20.70;96.00;;;;;;5013170;28;20550;-79
2023/07/02 07:44:46;;;;;;;1999.90;999.90;;;20.60;95.70;;;;;;5014873;28;20057;-78
2023/07/02 07:47:11;;;;;;;1999.90;999.90;;;20.90;95.10;;;;;;5013685;28;20034;-78
2023/07/02 07:49:37;;;;;;;1999.90;999.90;;;20.90;97.00;;;;;;5014910;28;20484;-77
2023/07/02 07:52:03;;;;;;;1999.90;999.90;;;20.90;95.30;;;;;;5015528;28;20038;-80
2023/07/02 07:54:29;;;;;;;1999.90;999.90;;;21.00;95.40;;;;;;5013576;28;20441;-77
2023/07/02 07:56:54;;;;;;;1999.90;999.90;;;21.10;94.00;;;;;;5015028;28;20042;-77
2023/07/02 07:59:20;;;;;;;1999.90;999.90;;;20.90;94.80;;;;;;5013452;28;20096;-81
2023/07/02 08:01:46;;;;;;;1999.90;999.90;;;21.00;94.90;;;;;;5015181;28;20038;-79
2023/07/02 08:04:12;;;;;;;1999.90;999.90;;;21.30;94.30;;;;;;4977529;28;1047973;-77
2023/07/02 08:06:38;;;;;;;1999.90;999.90;;;21.30;94.60;;;;;;5015746;28;20038;-79
2023/07/02 08:09:04;;;;;;;1999.90;999.90;;;21.50;94.10;;;;;;5017480;28;20034;-81
2023/07/02 08:11:29;;;;;;;1999.90;999.90;;;21.70;93.50;;;;;;5015207;28;20492;-79
2023/07/02 08:13:55;;;;;;;1999.90;999.90;;;21.70;92.50;;;;;;5014778;28;20035;-78
2023/07/02 08:16:20;;;;;;;1999.90;999.90;;;21.40;92.50;;;;;;5015099;28;20114;-77
2023/07/02 08:18:46;;;;;;;1999.90;999.90;;;21.10;93.00;;;;;;5012939;28;20503;-78
2023/07/02 08:21:11;;;;;;;1999.90;999.90;;;21.20;92.70;;;;;;5014717;28;20077;-78
2023/07/02 08:23:37;;;;;;;1999.90;999.90;;;21.50;93.00;;;;;;5014668;28;20085;-81
2023/07/02 08:26:03;;;;;;;1999.90;999.90;;;22.30;90.80;;;;;;5013719;28;20477;-79
2023/07/02 08:28:29;;;;;;;1999.90;999.90;;;22.30;91.40;;;;;;5014767;28;20034;-75
2023/07/02 08:30:54;;;;;;;1999.90;999.90;;;22.70;90.80;;;;;;5013595;28;20042;-76
2023/07/02 08:33:20;;;;;;;1999.90;999.90;;;23.00;90.00;;;;;;5013883;28;20039;-76
2023/07/02 08:35:46;;;;;;;1999.90;999.90;;;23.10;90.10;;;;;;5013861;28;20042;-77
2023/07/02 08:38:11;;;;;;;1999.90;999.90;;;22.90;87.60;;;;;;5014287;28;20036;-79
2023/07/02 08:40:37;;;;;;;1999.90;999.90;;;22.90;88.20;;;;;;5014785;28;20109;-79
2023/07/02 08:43:03;;;;;;;1999.90;999.90;;;23.20;87.80;;;;;;5015019;28;20150;-78
2023/07/02 08:45:29;;;;;;;1999.90;999.90;;;22.80;87.80;;;;;;5013111;28;20121;-78
2023/07/02 08:47:56;;;;;;;1999.90;999.90;;;22.00;88.40;;;;;;5015070;28;20122;-78
2023/07/02 08:50:23;;;;;;;1999.90;999.90;;;21.90;89.20;;;;;;5015353;28;20029;-81
2023/07/02 08:52:49;;;;;;;1999.90;999.90;;;21.80;90.00;;;;;;5013423;28;20510;-78
2023/07/02 08:55:14;;;;;;;1999.90;999.90;;;22.10;88.70;;;;;;5013001;28;20119;-80
2023/07/02 08:57:49;;;;;;;1999.90;999.90;;;22.40;85.20;;;;;;5014180;28;20174;-81
2023/07/02 09:00:15;;;;;;;1999.90;999.90;;;22.70;84.60;;;;;;5015854;28;20121;-78
2023/07/02 09:02:40;;;;;;;1999.90;999.90;;;23.10;83.90;;;;;;5015534;28;20026;-78
2023/07/02 09:05:06;;;;;;;1999.90;999.90;;;23.30;82.80;;;;;;5016865;28;20330;-79
2023/07/02 09:07:43;;;;;;;1999.90;999.90;;;23.40;85.10;;;;;;5018817;28;20026;-78
2023/07/02 09:10:08;;;;;;;1999.90;999.90;;;23.40;82.50;;;;;;5016934;28;20042;-79
2023/07/02 09:12:35;;;;;;;1999.90;999.90;;;23.80;81.20;;;;;;5018220;28;20030;-78
2023/07/02 09:15:08;;;;;;;1999.90;999.90;;;23.60;81.60;;;;;;5018253;28;20822;-77
2023/07/02 09:17:36;;;;;;;1999.90;999.90;;;23.20;83.00;;;;;;5028941;28;20022;-80
2023/07/02 09:20:05;;;;;;;1999.90;999.90;;;23.40;81.50;;;;;;5037690;28;20495;-79
2023/07/02 09:22:31;;;;;;;1999.90;999.90;;;23.40;81.20;;;;;;5041398;28;20045;-81
2023/07/02 09:24:58;;;;;;;1999.90;999.90;;;23.10;81.30;;;;;;5039563;28;20387;-80
2023/07/02 09:27:53;;;;;;;1999.90;999.90;;;22.80;82.50;;;;;;5040147;28;20111;-81
2023/07/02 09:30:19;;;;;;;1999.90;999.90;;;23.30;81.40;;;;;;5013290;28;20042;-80
2023/07/02 09:32:45;;;;;;;1999.90;999.90;;;23.30;79.20;;;;;;5023751;28;20042;-80
2023/07/02 09:35:12;;;;;;;1999.90;999.90;;;23.70;79.20;;;;;;5024925;28;20066;-80
2023/07/02 09:37:41;;;;;;;1999.90;999.90;;;24.30;78.80;;;;;;5023428;28;20058;-82
2023/07/02 09:40:08;;;;;;;1999.90;999.90;;;24.50;80.00;;;;;;5023393;28;20040;-80
2023/07/02 09:42:36;;;;;;;1999.90;999.90;;;24.80;77.10;;;;;;5022070;28;20496;-81
2023/07/02 09:45:02;;;;;;;1999.90;999.90;;;24.40;75.90;;;;;;5021500;28;20036;-78
2023/07/02 09:47:31;;;;;;;1999.90;999.90;;;23.40;77.80;;;;;;5023808;28;20085;-78
2023/07/02 09:50:05;;;;;;;1999.90;999.90;;;22.40;81.70;;;;;;5018753;28;20497;-78
2023/07/02 09:52:31;;;;;;;1999.90;999.90;;;22.20;81.40;;;;;;5020052;28;20083;-78
2023/07/02 09:54:57;;;;;;;1999.90;999.90;;;22.40;82.60;;;;;;5019199;28;20027;-80
2023/07/02 09:57:22;;;;;;;1999.90;999.90;;;22.90;81.40;;;;;;5017723;28;20034;-80
2023/07/02 09:59:48;;;;;;;1999.90;999.90;;;22.90;80.30;;;;;;5020551;28;20038;-79
2023/07/02 10:02:14;;;;;;;1999.90;999.90;;;22.30;80.80;;;;;;5018946;28;20093;-79
2023/07/02 10:04:44;;;;;;;1999.90;999.90;;;22.00;82.40;;;;;;5019132;28;20405;-79
2023/07/02 10:07:10;;;;;;;1999.90;999.90;;;22.00;80.00;;;;;;5019075;28;20026;-80
2023/07/02 10:09:40;;;;;;;1999.90;999.90;;;21.90;81.00;;;;;;5033079;28;20057;-78
2023/07/02 10:12:25;;;;;;;1999.90;999.90;;;22.00;81.80;;;;;;5023478;28;20165;-77
2023/07/02 10:14:53;;;;;;;1999.90;999.90;;;21.60;83.70;;;;;;5035220;28;20492;-78
2023/07/02 10:17:32;;;;;;;1999.90;999.90;;;21.60;84.70;;;;;;5038709;28;20038;-78
2023/07/02 10:20:00;;;;;;;1999.90;999.90;;;21.80;84.00;;;;;;5035525;28;20499;-77
2023/07/02 10:22:26;;;;;;;1999.90;999.90;;;21.70;84.50;;;;;;5029427;28;20030;-80
2023/07/02 10:24:59;;;;;;;1999.90;999.90;;;21.70;85.40;;;;;;5017532;28;20109;-80
2023/07/02 10:27:39;;;;;;;1999.90;999.90;;;22.00;85.00;;;;;;5019639;28;20801;-79
2023/07/02 10:30:06;;;;;;;1999.90;999.90;;;22.30;84.10;;;;;;5016971;28;20034;-79
2023/07/02 10:32:33;;;;;;;1999.90;999.90;;;22.40;82.70;;;;;;5022933;28;20037;-77
2023/07/02 10:35:02;;;;;;;1999.90;999.90;;;22.40;83.50;;;;;;5021300;28;20519;-76
2023/07/02 10:37:35;;;;;;;1999.90;999.90;;;22.80;82.80;;;;;;5017315;28;20097;-77
2023/07/02 10:40:04;;;;;;;1999.90;999.90;;;22.70;79.60;;;;;;5018675;28;20038;-77
2023/07/02 10:42:30;;;;;;;1999.90;999.90;;;23.60;79.90;;;;;;5024935;28;20477;-77
2023/07/02 10:44:56;;;;;;;1999.90;999.90;;;23.80;76.80;;;;;;5037260;28;20113;-80
2023/07/02 10:47:21;;;;;;;1999.90;999.90;;;24.40;76.90;;;;;;5037235;28;20034;-78
2023/07/02 10:49:47;;;;;;;1999.90;999.90;;;24.50;75.50;;;;;;5038495;28;20062;-77
2023/07/02 10:52:12;;;;;;;1999.90;999.90;;;24.30;75.00;;;;;;5035179;28;20029;-78
2023/07/02 10:54:46;;;;;;;1999.90;999.90;;;23.70;76.30;;;;;;5037426;28;20083;-78
2023/07/02 10:57:15;;;;;;;1999.90;999.90;;;23.60;77.80;;;;;;5035475;28;20038;-77
2023/07/02 10:59:41;;;;;;;1999.90;999.90;;;23.90;77.10;;;;;;5036732;28;20785;-78
2023/07/02 11:02:09;;;;;;;1999.90;999.90;;;24.50;76.50;;;;;;5034788;28;20050;-78
2023/07/02 11:04:36;;;;;;;1999.90;999.90;;;24.70;73.40;;;;;;5036760;28;20037;-78
2023/07/02 11:07:01;;;;;;;1999.90;999.90;;;24.90;73.80;;;;;;5037243;28;20090;-79
2023/07/02 11:09:27;;;;;;;1999.90;999.90;;;25.10;72.60;;;;;;5037105;28;20074;-79
2023/07/02 11:11:57;;;;;;;1999.90;999.90;;;24.90;74.10;;;;;;5036732;28;20030;-76
2023/07/02 11:14:33;;;;;;;1999.90;999.90;;;24.40;72.80;;;;;;5037234;28;20026;-77
2023/07/02 11:17:05;;;;;;;1999.90;999.90;;;23.70;74.50;;;;;;5037635;28;20030;-76
2023/07/02 11:19:33;;;;;;;1999.90;999.90;;;24.00;75.50;;;;;;5035744;28;20068;-79
2023/07/02 11:22:00;;;;;;;1999.90;999.90;;;24.40;72.40;;;;;;5037143;28;20484;-76
2023/07/02 11:24:35;;;;;;;1999.90;999.90;;;24.20;73.30;;;;;;5035780;28;20057;-76
2023/07/02 11:27:02;;;;;;;1999.90;999.90;;;23.90;74.10;;;;;;5037143;28;20042;-81
2023/07/02 11:29:29;;;;;;;1999.90;999.90;;;23.80;74.10;;;;;;5038923;28;20085;-80
2023/07/02 11:32:09;;;;;;;1999.90;999.90;;;23.80;74.70;;;;;;5038492;28;20066;-78
2023/07/02 11:34:35;;;;;;;1999.90;999.90;;;23.70;74.80;;;;;;5036903;28;20076;-76
2023/07/02 11:37:00;;;;;;;1999.90;999.90;;;24.10;75.20;;;;;;5036173;28;20038;-77
2023/07/02 11:39:26;;;;;;;1999.90;999.90;;;24.50;73.60;;;;;;5035265;28;20034;-78
2023/07/02 11:41:52;;;;;;;1999.90;999.90;;;24.40;73.80;;;;;;5035182;28;20042;-76
2023/07/02 11:44:18;;;;;;;1999.90;999.90;;;24.40;74.80;;;;;;5035112;28;20050;-76
2023/07/02 11:46:44;;;;;;;1999.90;999.90;;;24.60;76.50;;;;;;5035758;28;20062;-77
2023/07/02 11:49:09;;;;;;;1999.90;999.90;;;24.50;73.90;;;;;;5035650;28;20030;-72
2023/07/02 11:51:39;;;;;;;1999.90;999.90;;;24.30;74.90;;;;;;5034389;28;20496;-74
2023/07/02 11:54:05;;;;;;;1999.90;999.90;;;24.40;73.80;;;;;;5034628;28;20034;-73
2023/07/02 11:56:31;;;;;;;1999.90;999.90;;;24.90;70.90;;;;;;5034751;28;20120;-75